createdAt,value
2019-04-20T00:01:03.351Z,15.33
2019-04-20T00:06:43.837Z,14.60
2019-04-20T00:09:18.286Z,13.20
2019-04-20T00:11:53.568Z,14.10
2019-04-20T00:14:21.911Z,13.20
2019-04-20T00:16:48.247Z,14.27
2019-04-20T00:19:27.769Z,13.27
2019-04-20T00:22:00.334Z,13.67
2019-04-20T00:24:34.417Z,13.47
2019-04-20T00:27:26.250Z,12.70
2019-04-20T00:29:54.766Z,13.47
2019-04-20T00:32:19.768Z,14.50
2019-04-20T00:34:45.466Z,13.27
2019-04-20T00:37:15.186Z,14.30
2019-04-20T00:39:46.823Z,14.93
2019-04-20T00:42:23.450Z,14.13
2019-04-20T00:44:56.437Z,14.10
2019-04-20T00:47:34.922Z,14.33
2019-04-20T00:50:05.731Z,15.40
2019-04-20T00:52:44.472Z,14.40
2019-04-20T00:55:00.340Z,15.80
2019-04-20T00:57:41.573Z,15.20
2019-04-20T01:00:21.677Z,14.77
2019-04-20T01:02:49.559Z,14.23
2019-04-20T01:05:35.386Z,15.50
2019-04-20T01:08:06.419Z,13.87
2019-04-20T01:10:41.615Z,13.63
2019-04-20T01:13:15.093Z,13.90
2019-04-20T01:15:52.734Z,13.90
2019-04-20T01:18:15.010Z,13.80
2019-04-20T01:20:45.819Z,13.20
2019-04-20T01:23:20.724Z,13.10
2019-04-20T01:25:56.826Z,13.40
2019-04-20T01:28:38.457Z,13.17
2019-04-20T01:31:09.189Z,12.50
2019-04-20T01:33:37.239Z,13.20
2019-04-20T01:36:21.597Z,12.90
2019-04-20T01:38:43.550Z,12.80
2019-04-20T01:41:03.364Z,12.50
2019-04-20T01:43:35.243Z,13.00
2019-04-20T01:46:11.882Z,11.80
2019-04-20T01:48:39.885Z,12.20
2019-04-20T01:51:17.610Z,12.63
2019-04-20T01:54:01.462Z,12.43
2019-04-20T01:56:31.601Z,12.10
2019-04-20T01:59:20.050Z,12.50
2019-04-20T02:02:11.562Z,12.17
2019-04-20T02:04:45.917Z,12.13
2019-04-20T02:07:18.440Z,12.27
2019-04-20T02:09:55.800Z,11.90
2019-04-20T02:12:25.371Z,12.90
2019-04-20T02:14:57.158Z,11.83
2019-04-20T02:17:33.063Z,11.20
2019-04-20T02:20:15.692Z,12.83
2019-04-20T02:22:48.994Z,14.17
2019-04-20T02:25:01.705Z,13.33
2019-04-20T02:27:40.891Z,13.10
2019-04-20T02:30:45.022Z,12.43
2019-04-20T02:33:40.107Z,13.10
2019-04-20T02:36:11.082Z,12.70
2019-04-20T02:39:05.890Z,12.73
2019-04-20T02:41:36.184Z,13.33
2019-04-20T02:43:58.084Z,12.83
2019-04-20T02:46:15.544Z,13.17
2019-04-20T02:49:01.041Z,13.33
2019-04-20T02:51:23.332Z,13.47
2019-04-20T02:56:36.174Z,13.30
2019-04-20T02:59:25.126Z,12.83
2019-04-20T03:01:43.483Z,13.47
2019-04-20T03:03:59.376Z,13.13
2019-04-20T03:06:42.345Z,13.07
2019-04-20T03:09:24.317Z,12.00
2019-04-20T03:14:24.006Z,13.67
2019-04-20T03:16:57.166Z,12.27
2019-04-20T03:19:23.411Z,12.50
2019-04-20T03:22:09.745Z,12.73
2019-04-20T03:24:38.705Z,12.57
2019-04-20T03:27:28.096Z,12.17
2019-04-20T03:31:07.458Z,12.17
2019-04-20T03:33:12.621Z,12.43
2019-04-20T03:35:35.187Z,12.03
2019-04-20T03:38:06.018Z,12.07
2019-04-20T03:40:29.947Z,11.63
2019-04-20T03:42:48.739Z,11.07
2019-04-20T03:45:23.148Z,10.93
2019-04-20T03:48:03.168Z,11.80
2019-04-20T03:50:47.892Z,11.30
2019-04-20T03:53:19.133Z,12.07
2019-04-20T03:56:19.714Z,12.47
2019-04-20T03:59:09.079Z,12.50
2019-04-20T04:02:22.505Z,12.53
2019-04-20T04:04:54.575Z,11.20
2019-04-20T04:07:21.934Z,12.60
2019-04-20T04:10:03.029Z,12.23
2019-04-20T04:13:05.128Z,11.73
2019-04-20T04:15:42.669Z,10.57
2019-04-20T04:18:15.661Z,10.67
2019-04-20T04:20:46.740Z,10.00
2019-04-20T04:23:32.396Z,10.73
2019-04-20T04:26:03.515Z,11.13
2019-04-20T04:28:39.699Z,9.77
2019-04-20T04:36:10.120Z,9.10
2019-04-20T04:38:51.725Z,8.10
2019-04-20T04:44:00.162Z,8.43
2019-04-20T04:46:06.109Z,8.27
2019-04-20T04:48:41.168Z,7.70
2019-04-20T04:51:17.624Z,7.13
2019-04-20T04:53:50.542Z,8.60
2019-04-20T04:56:18.112Z,7.77
2019-04-20T04:58:51.639Z,8.67
2019-04-20T05:01:27.425Z,8.27
2019-04-20T05:04:21.286Z,8.43
2019-04-20T05:06:37.749Z,8.87
2019-04-20T05:09:03.584Z,8.87
2019-04-20T05:11:35.577Z,8.53
2019-04-20T05:14:10.939Z,8.90
2019-04-20T05:16:56.409Z,9.07
2019-04-20T05:19:31.174Z,8.20
2019-04-20T05:22:16.023Z,9.03
2019-04-20T05:25:01.168Z,7.93
2019-04-20T05:27:46.684Z,7.57
2019-04-20T05:29:59.197Z,7.73
2019-04-20T05:32:41.717Z,7.63
2019-04-20T05:35:26.874Z,7.40
2019-04-20T05:38:02.032Z,7.67
2019-04-20T05:40:27.693Z,7.27
2019-04-20T05:43:17.487Z,7.37
2019-04-20T05:45:45.369Z,7.17
2019-04-20T05:48:20.543Z,7.50
2019-04-20T05:50:56.656Z,7.43
2019-04-20T05:53:34.112Z,7.30
2019-04-20T05:55:59.615Z,7.27
2019-04-20T05:58:32.743Z,7.90
2019-04-20T06:01:06.733Z,7.30
2019-04-20T06:03:37.177Z,7.93
2019-04-20T06:06:15.176Z,7.73
2019-04-20T06:09:06.899Z,7.37
2019-04-20T06:11:23.776Z,7.67
2019-04-20T06:14:03.773Z,7.67
2019-04-20T06:17:04.855Z,7.70
2019-04-20T06:19:47.260Z,8.40
2019-04-20T06:22:12.581Z,8.13
2019-04-20T06:25:19.764Z,7.93
2019-04-20T06:27:37.870Z,7.50
2019-04-20T06:30:01.138Z,7.90
2019-04-20T06:33:25.560Z,7.30
2019-04-20T06:36:07.562Z,7.83
2019-04-20T06:38:36.514Z,7.50
2019-04-20T06:40:59.493Z,7.27
2019-04-20T06:43:25.415Z,6.97
2019-04-20T06:46:05.605Z,7.40
2019-04-20T06:48:35.435Z,7.40
2019-04-20T06:50:57.131Z,6.90
2019-04-20T06:53:45.338Z,7.10
2019-04-20T06:56:23.721Z,6.60
2019-04-20T06:58:58.932Z,6.53
2019-04-20T07:01:24.921Z,7.60
2019-04-20T07:04:19.224Z,6.87
2019-04-20T07:06:45.358Z,7.00
2019-04-20T07:09:10.441Z,7.33
2019-04-20T07:11:35.440Z,7.47
2019-04-20T07:13:54.389Z,6.30
2019-04-20T07:17:16.193Z,6.80
2019-04-20T07:19:40.331Z,6.40
2019-04-20T07:22:30.086Z,7.00
2019-04-20T07:24:56.758Z,6.83
2019-04-20T07:27:27.735Z,6.40
2019-04-20T07:29:58.876Z,7.03
2019-04-20T07:32:23.333Z,6.90
2019-04-20T07:35:01.444Z,6.47
2019-04-20T07:38:07.128Z,6.80
2019-04-20T07:40:17.666Z,6.50
2019-04-20T07:42:47.987Z,6.77
2019-04-20T07:48:01.671Z,6.80
2019-04-20T07:50:18.650Z,6.50
2019-04-20T07:52:43.882Z,6.30
2019-04-20T07:57:54.647Z,6.60
2019-04-20T08:00:44.488Z,5.87
2019-04-20T08:03:28.389Z,6.37
2019-04-20T08:05:55.157Z,5.60
2019-04-20T08:08:35.275Z,5.10
2019-04-20T08:11:10.367Z,5.53
2019-04-20T08:13:49.362Z,5.20
2019-04-20T08:16:14.966Z,5.10
2019-04-20T08:18:51.325Z,5.30
2019-04-20T08:21:25.446Z,5.67
2019-04-20T08:23:53.678Z,5.10
2019-04-20T08:26:11.063Z,6.50
2019-04-20T08:28:48.759Z,5.40
2019-04-20T08:32:03.120Z,4.83
2019-04-20T08:34:36.967Z,4.93
2019-04-20T08:37:01.623Z,4.90
2019-04-20T08:39:51.149Z,4.73
2019-04-20T08:42:13.062Z,4.70
2019-04-20T08:47:27.874Z,4.33
2019-04-20T08:50:17.213Z,4.80
2019-04-20T08:53:03.868Z,4.53
2019-04-20T08:55:16.647Z,4.53
2019-04-20T08:57:29.108Z,4.30
2019-04-20T09:00:03.550Z,4.70
2019-04-20T09:02:34.978Z,4.80
2019-04-20T09:05:14.671Z,3.90
2019-04-20T09:07:54.213Z,4.37
2019-04-20T09:10:34.337Z,4.73
2019-04-20T09:12:57.402Z,5.00
2019-04-20T09:15:19.045Z,4.70
2019-04-20T09:18:05.009Z,5.00
2019-04-20T09:20:45.842Z,4.63
2019-04-20T09:23:25.420Z,4.80
2019-04-20T09:26:02.413Z,3.90
2019-04-20T09:28:35.360Z,4.17
2019-04-20T09:31:18.047Z,4.43
2019-04-20T09:33:58.232Z,4.23
2019-04-20T09:36:46.270Z,4.40
2019-04-20T09:39:24.619Z,4.37
2019-04-20T09:42:11.611Z,4.53
2019-04-20T09:44:47.812Z,4.33
2019-04-20T09:47:25.913Z,4.70
2019-04-20T09:49:58.149Z,4.13
2019-04-20T09:52:31.847Z,3.97
2019-04-20T09:55:07.482Z,4.13
2019-04-20T09:57:43.979Z,5.13
2019-04-20T10:00:16.382Z,5.70
2019-04-20T10:02:34.407Z,5.30
2019-04-20T10:05:02.164Z,4.87
2019-04-20T10:07:37.044Z,4.93
2019-04-20T10:10:20.300Z,3.70
2019-04-20T10:12:41.737Z,3.20
2019-04-20T10:15:18.989Z,3.50
2019-04-20T10:17:45.682Z,3.03
2019-04-20T10:20:23.555Z,3.37
2019-04-20T10:22:49.184Z,2.80
2019-04-20T10:25:20.566Z,2.70
2019-04-20T10:27:51.626Z,2.23
2019-04-20T10:30:23.019Z,2.37
2019-04-20T10:32:55.421Z,2.40
2019-04-20T10:35:25.880Z,2.43
2019-04-20T10:38:18.421Z,2.77
2019-04-20T10:40:57.267Z,2.73
2019-04-20T10:43:21.939Z,2.63
2019-04-20T10:45:52.986Z,3.33
2019-04-20T10:48:24.076Z,2.43
2019-04-20T10:50:54.816Z,2.50
2019-04-20T10:53:26.046Z,2.67
2019-04-20T10:55:57.821Z,2.70
2019-04-20T10:58:29.570Z,2.90
2019-04-20T11:01:00.221Z,2.80
2019-04-20T11:03:32.346Z,2.70
2019-04-20T11:06:03.147Z,2.80
2019-04-20T11:08:34.826Z,2.23
2019-04-20T11:11:12.730Z,2.30
2019-04-20T11:13:39.353Z,2.97
2019-04-20T11:16:10.732Z,2.33
2019-04-20T11:18:41.320Z,3.43
2019-04-20T11:21:13.235Z,2.30
2019-04-20T11:23:44.500Z,4.73
2019-04-20T11:26:16.157Z,2.30
2019-04-20T11:28:46.721Z,2.50
2019-04-20T11:31:17.191Z,2.70
2019-04-20T11:33:48.059Z,2.03
2019-04-20T11:36:19.170Z,2.20
2019-04-20T11:38:51.091Z,2.10
2019-04-20T11:41:26.032Z,2.40
2019-04-20T11:43:54.087Z,2.37
2019-04-20T11:46:25.002Z,2.20
2019-04-20T11:48:55.524Z,2.30
2019-04-20T11:51:25.983Z,2.23
2019-04-20T11:53:56.572Z,2.10
2019-04-20T11:56:31.766Z,2.40
2019-04-20T11:59:25.402Z,2.57
2019-04-20T12:02:08.326Z,2.17
2019-04-20T12:04:54.350Z,2.50
2019-04-20T12:07:19.220Z,2.90
2019-04-20T12:09:51.492Z,2.83
2019-04-20T12:12:30.003Z,2.90
2019-04-20T12:14:54.816Z,2.70
2019-04-20T12:17:25.937Z,2.60
2019-04-20T12:19:57.787Z,2.70
2019-04-20T12:22:28.428Z,2.20
2019-04-20T12:25:00.442Z,2.20
2019-04-20T12:27:32.506Z,2.10
2019-04-20T12:30:03.696Z,2.03
2019-04-20T12:32:42.306Z,2.30
2019-04-20T12:35:08.884Z,2.10
2019-04-20T12:37:40.921Z,2.30
2019-04-20T12:40:12.236Z,2.10
2019-04-20T12:42:43.185Z,2.17
2019-04-20T12:45:15.775Z,2.00
2019-04-20T12:47:49.500Z,2.27
2019-04-20T12:50:21.487Z,2.20
2019-04-20T12:52:52.574Z,2.05
2019-04-20T12:55:24.686Z,2.12
2019-04-20T12:57:56.675Z,2.20
2019-04-20T13:00:54.244Z,2.37
2019-04-20T13:03:25.631Z,2.35
2019-04-20T13:05:56.353Z,2.10
2019-04-20T13:08:34.012Z,2.45
2019-04-20T13:11:08.739Z,1.95
2019-04-20T13:13:54.998Z,1.80
2019-04-20T13:16:30.344Z,2.00
2019-04-20T13:19:03.965Z,1.95
2019-04-20T13:21:34.838Z,1.95
2019-04-20T13:24:06.763Z,1.90
2019-04-20T13:26:37.693Z,1.90
2019-04-20T13:29:08.769Z,2.10
2019-04-20T13:31:39.981Z,1.70
2019-04-20T13:34:10.601Z,1.70
2019-04-20T13:36:42.090Z,1.70
2019-04-20T13:39:14.305Z,2.08
2019-04-20T13:41:57.629Z,1.65
2019-04-20T13:44:17.992Z,1.60
2019-04-20T13:46:49.169Z,1.75
2019-04-20T13:49:20.829Z,1.80
2019-04-20T13:51:51.329Z,1.92
2019-04-20T13:54:24.871Z,1.45
2019-04-20T13:56:55.765Z,1.80
2019-04-20T13:59:33.932Z,1.95
2019-04-20T14:02:43.051Z,3.12
2019-04-20T14:05:14.674Z,1.80
2019-04-20T14:07:47.129Z,1.70
2019-04-20T14:10:19.555Z,1.70
2019-04-20T14:12:57.257Z,1.90
2019-04-20T14:15:22.993Z,1.80
2019-04-20T14:17:55.151Z,2.05
2019-04-20T14:20:27.078Z,2.10
2019-04-20T14:22:58.838Z,2.05
2019-04-20T14:25:31.166Z,1.98
2019-04-20T14:28:02.763Z,2.10
2019-04-20T14:30:33.628Z,2.22
2019-04-20T14:33:05.222Z,2.00
2019-04-20T14:35:36.915Z,2.50
2019-04-20T14:38:07.934Z,2.20
2019-04-20T14:40:39.745Z,2.70
2019-04-20T14:43:11.016Z,2.45
2019-04-20T14:45:42.848Z,2.22
2019-04-20T14:48:14.727Z,2.33
2019-04-20T14:50:45.784Z,2.30
2019-04-20T14:53:17.602Z,1.77
2019-04-20T14:55:49.307Z,2.00
2019-04-20T14:58:45.241Z,1.80
2019-04-20T15:01:28.668Z,2.08
2019-04-20T15:04:05.818Z,1.52
2019-04-20T15:06:34.620Z,1.60
2019-04-20T15:09:04.895Z,3.45
2019-04-20T15:11:39.668Z,1.95
2019-04-20T15:14:09.238Z,1.77
2019-04-20T15:16:42.566Z,1.70
2019-04-20T15:19:39.337Z,1.80
2019-04-20T15:22:39.135Z,2.00
2019-04-20T15:25:11.613Z,1.72
2019-04-20T15:27:46.017Z,1.80
2019-04-20T15:30:16.279Z,2.00
2019-04-20T15:32:47.157Z,2.00
2019-04-20T15:35:19.323Z,2.58
2019-04-20T15:37:51.056Z,2.08
2019-04-20T15:40:21.668Z,1.90
2019-04-20T15:43:03.839Z,2.10
2019-04-20T15:45:25.344Z,2.20
2019-04-20T15:47:56.370Z,2.42
2019-04-20T15:50:27.686Z,2.05
2019-04-20T15:53:00.054Z,2.40
2019-04-20T15:55:37.459Z,1.95
2019-04-20T15:58:24.427Z,2.67
2019-04-20T16:00:56.409Z,2.12
2019-04-20T16:03:37.363Z,3.60
2019-04-20T16:06:09.472Z,2.10
2019-04-20T16:08:42.088Z,2.67
2019-04-20T16:11:13.314Z,2.33
2019-04-20T16:13:47.959Z,2.60
2019-04-20T16:16:16.308Z,2.37
2019-04-20T16:18:48.464Z,2.00
2019-04-20T16:21:23.019Z,2.63
2019-04-20T16:23:59.193Z,2.20
2019-04-20T16:26:37.860Z,2.20
2019-04-20T16:29:08.516Z,2.43
2019-04-20T16:31:40.417Z,2.00
2019-04-20T16:34:11.696Z,2.30
2019-04-20T16:36:42.314Z,2.47
2019-04-20T16:39:14.283Z,2.20
2019-04-20T16:41:46.466Z,3.13
2019-04-20T16:44:17.661Z,3.43
2019-04-20T16:46:48.508Z,3.17
2019-04-20T16:49:19.396Z,2.40
2019-04-20T16:51:52.622Z,2.30
2019-04-20T16:54:23.711Z,2.20
2019-04-20T16:56:54.948Z,2.40
2019-04-20T16:59:25.770Z,2.47
2019-04-20T17:01:58.246Z,3.03
2019-04-20T17:04:30.867Z,2.47
2019-04-20T17:07:29.312Z,2.40
2019-04-20T17:10:00.275Z,2.73
2019-04-20T17:12:31.291Z,2.73
2019-04-20T17:15:01.865Z,3.67
2019-04-20T17:17:33.516Z,2.80
2019-04-20T17:20:04.868Z,2.80
2019-04-20T17:22:35.400Z,3.00
2019-04-20T17:25:08.284Z,3.90
2019-04-20T17:28:08.816Z,3.40
2019-04-20T17:30:59.133Z,3.60
2019-04-20T17:33:54.836Z,2.90
2019-04-20T17:36:20.850Z,2.90
2019-04-20T17:38:52.654Z,3.13
2019-04-20T17:41:39.935Z,3.10
2019-04-20T17:44:09.629Z,2.90
2019-04-20T17:46:39.131Z,3.27
2019-04-20T17:49:13.622Z,2.87
2019-04-20T17:51:54.852Z,3.23
2019-04-20T17:54:23.511Z,3.07
2019-04-20T17:56:54.387Z,3.17
2019-04-20T17:59:26.172Z,3.33
2019-04-20T18:02:53.634Z,3.27
2019-04-20T18:05:33.821Z,3.40
2019-04-20T18:08:08.114Z,3.13
2019-04-20T18:10:32.770Z,3.40
2019-04-20T18:12:54.001Z,3.40
2019-04-20T18:15:43.860Z,3.60
2019-04-20T18:18:27.437Z,3.87
2019-04-20T18:21:08.581Z,6.77
2019-04-20T18:23:43.463Z,5.17
2019-04-20T18:26:33.244Z,4.63
2019-04-20T18:29:03.681Z,5.17
2019-04-20T18:31:43.735Z,4.87
2019-04-20T18:34:22.648Z,4.83
2019-04-20T18:36:52.751Z,5.37
2019-04-20T18:39:31.798Z,5.20
2019-04-20T18:42:03.138Z,6.30
2019-04-20T18:44:53.868Z,6.20
2019-04-20T18:47:23.850Z,7.00
2019-04-20T18:49:43.179Z,6.40
2019-04-20T18:52:06.037Z,7.67
2019-04-20T18:54:40.693Z,7.80
2019-04-20T18:57:14.417Z,19.10
2019-04-20T19:03:20.403Z,10.97
2019-04-20T19:05:45.132Z,12.23
2019-04-20T19:08:17.164Z,12.00
2019-04-20T19:10:55.576Z,10.43
2019-04-20T19:13:43.482Z,8.63
2019-04-20T19:16:52.389Z,8.07
2019-04-20T19:19:41.348Z,7.87
2019-04-20T19:22:08.437Z,8.03
2019-04-20T19:24:41.499Z,8.13
2019-04-20T19:27:15.295Z,7.93
2019-04-20T19:29:54.853Z,8.40
2019-04-20T19:32:32.302Z,7.60
2019-04-20T19:34:59.574Z,7.97
2019-04-20T19:37:28.945Z,7.63
2019-04-20T19:40:09.606Z,7.43
2019-04-20T19:42:41.357Z,7.30
2019-04-20T19:45:29.099Z,7.60
2019-04-20T19:47:48.104Z,6.17
2019-04-20T19:50:31.559Z,6.83
2019-04-20T19:53:06.278Z,6.53
2019-04-20T19:55:24.641Z,7.10
2019-04-20T19:57:56.989Z,7.10
2019-04-20T20:00:14.622Z,6.63
2019-04-20T20:02:47.858Z,6.80
2019-04-20T20:05:25.030Z,7.70
2019-04-20T20:07:56.349Z,7.70
2019-04-20T20:10:29.865Z,6.90
2019-04-20T20:13:00.704Z,7.30
2019-04-20T20:15:33.079Z,7.00
2019-04-20T20:18:19.345Z,7.30
2019-04-20T20:20:52.911Z,6.97
2019-04-20T20:23:07.814Z,6.60
2019-04-20T20:25:42.642Z,7.10
2019-04-20T20:28:18.750Z,7.37
2019-04-20T20:30:56.910Z,6.73
2019-04-20T20:33:36.357Z,6.60
2019-04-20T20:35:58.250Z,6.50
2019-04-20T20:38:27.968Z,6.43
2019-04-20T20:41:06.661Z,6.37
2019-04-20T20:43:40.745Z,6.30
2019-04-20T20:46:12.376Z,5.73
2019-04-20T20:48:48.126Z,6.07
2019-04-20T20:51:31.459Z,6.37
2019-04-20T20:53:49.768Z,5.90
2019-04-20T20:56:18.517Z,6.03
2019-04-20T20:58:54.002Z,6.10
2019-04-20T21:01:20.477Z,5.60
2019-04-20T21:03:48.686Z,5.60
2019-04-20T21:06:20.080Z,5.87
2019-04-20T21:08:53.893Z,6.10
2019-04-20T21:11:27.501Z,6.03
2019-04-20T21:13:55.746Z,5.83
2019-04-20T21:16:31.889Z,5.70
2019-04-20T21:19:12.905Z,5.53
2019-04-20T21:21:42.462Z,5.80
2019-04-20T21:24:15.783Z,5.40
2019-04-20T21:26:44.259Z,6.03
2019-04-20T21:29:21.370Z,5.63
2019-04-20T21:31:55.578Z,5.50
2019-04-20T21:34:21.916Z,5.60
2019-04-20T21:36:55.338Z,5.50
2019-04-20T21:39:34.833Z,5.57
2019-04-20T21:42:04.663Z,5.47
2019-04-20T21:44:35.638Z,5.10
2019-04-20T21:47:03.369Z,5.97
2019-04-20T21:49:47.525Z,5.83
2019-04-20T21:52:17.403Z,5.77
2019-04-20T21:54:40.099Z,6.20
2019-04-20T21:57:12.922Z,6.10
2019-04-20T21:59:47.027Z,6.30
2019-04-20T22:02:21.917Z,6.03
2019-04-20T22:04:49.271Z,6.80
2019-04-20T22:07:20.743Z,5.73
2019-04-20T22:09:54.716Z,6.17
2019-04-20T22:12:30.609Z,6.23
2019-04-20T22:15:03.652Z,5.97
2019-04-20T22:17:33.103Z,6.10
2019-04-20T22:20:13.236Z,6.40
2019-04-20T22:22:50.839Z,6.03
2019-04-20T22:25:28.248Z,6.07
2019-04-20T22:27:38.944Z,6.00
2019-04-20T22:30:12.280Z,5.77
2019-04-20T22:32:48.076Z,5.83
2019-04-20T22:35:17.103Z,6.10
2019-04-20T22:38:13.522Z,6.13
2019-04-20T22:40:42.851Z,5.70
2019-04-20T22:43:17.981Z,5.50
2019-04-20T22:45:50.637Z,5.63
2019-04-20T22:48:20.829Z,6.00
2019-04-20T22:51:12.323Z,5.70
2019-04-20T22:53:37.604Z,5.50
2019-04-20T22:56:14.349Z,6.47
2019-04-20T22:58:40.382Z,5.70
2019-04-20T23:01:04.381Z,6.27
2019-04-20T23:03:32.593Z,5.57
2019-04-20T23:06:03.273Z,6.20
2019-04-20T23:08:35.045Z,6.70
2019-04-20T23:11:09.346Z,6.80
2019-04-20T23:13:41.881Z,6.67
2019-04-20T23:16:11.273Z,7.00
2019-04-20T23:18:44.428Z,7.33
2019-04-20T23:21:17.528Z,7.17
2019-04-20T23:23:52.516Z,7.67
2019-04-20T23:26:29.329Z,6.77
2019-04-20T23:28:57.075Z,7.17
2019-04-20T23:31:27.369Z,7.07
2019-04-20T23:34:01.390Z,6.90
2019-04-20T23:36:37.206Z,7.13
2019-04-20T23:39:04.892Z,6.47
2019-04-20T23:41:35.746Z,7.33
2019-04-20T23:44:18.851Z,7.10
2019-04-20T23:47:07.769Z,7.03
2019-04-20T23:49:54.124Z,7.03
2019-04-20T23:52:32.588Z,6.73
2019-04-20T23:54:48.979Z,6.97
2019-04-20T23:57:13.557Z,6.73
2019-04-20T23:59:46.240Z,6.47
